createdAt,value
2018-04-18T00:00:08.859Z,99.90
2018-04-18T00:01:11.332Z,99.90
2018-04-18T00:02:13.823Z,99.90
2018-04-18T00:03:16.574Z,99.90
2018-04-18T00:04:19.065Z,99.90
2018-04-18T00:05:21.914Z,99.90
2018-04-18T00:06:25.069Z,99.90
2018-04-18T00:07:27.540Z,99.90
2018-04-18T00:08:30.791Z,99.90
2018-04-18T00:09:34.024Z,99.90
2018-04-18T00:10:36.577Z,99.90
2018-04-18T00:11:39.309Z,99.90
2018-04-18T00:12:41.837Z,99.90
2018-04-18T00:13:44.485Z,99.90
2018-04-18T00:14:46.907Z,99.90
2018-04-18T00:15:50.155Z,99.90
2018-04-18T00:16:52.637Z,99.90
2018-04-18T00:17:55.911Z,99.90
2018-04-18T00:18:58.409Z,99.90
2018-04-18T00:20:01.660Z,99.90
2018-04-18T00:21:04.912Z,99.90
2018-04-18T00:22:07.957Z,99.90
2018-04-18T00:23:10.441Z,99.90
2018-04-18T00:24:12.985Z,99.90
2018-04-18T00:25:16.212Z,99.90
2018-04-18T00:26:19.448Z,99.90
2018-04-18T00:27:22.195Z,99.90
2018-04-18T00:28:25.455Z,99.90
2018-04-18T00:29:27.937Z,99.90
2018-04-18T00:30:30.430Z,99.90
2018-04-18T00:31:32.923Z,99.90
2018-04-18T00:32:35.459Z,99.90
2018-04-18T00:33:38.608Z,99.90
2018-04-18T00:34:41.080Z,99.90
2018-04-18T00:35:43.645Z,99.90
2018-04-18T00:36:46.176Z,99.90
2018-04-18T00:37:48.734Z,99.90
2018-04-18T00:38:51.257Z,99.90
2018-04-18T00:39:53.796Z,99.90
2018-04-18T00:40:56.331Z,99.90
2018-04-18T00:41:58.820Z,99.90
2018-04-18T00:43:01.297Z,99.90
2018-04-18T00:44:03.819Z,99.90
2018-04-18T00:45:06.291Z,99.90
2018-04-18T00:46:08.783Z,99.90
2018-04-18T00:47:12.017Z,99.90
2018-04-18T00:48:14.493Z,99.90
2018-04-18T00:49:17.113Z,99.90
2018-04-18T00:50:19.599Z,99.90
2018-04-18T00:51:22.895Z,99.90
2018-04-18T00:52:25.382Z,99.90
2018-04-18T00:53:27.901Z,99.90
2018-04-18T00:54:31.133Z,99.90
2018-04-18T00:55:34.364Z,99.90
2018-04-18T00:56:37.780Z,99.90
2018-04-18T00:57:40.248Z,99.90
2018-04-18T00:58:42.750Z,99.90
2018-04-18T00:59:45.241Z,99.90
2018-04-18T01:00:47.749Z,99.90
2018-04-18T01:01:50.203Z,99.90
2018-04-18T01:02:52.677Z,99.90
2018-04-18T01:03:56.045Z,99.90
2018-04-18T01:04:58.516Z,99.90
2018-04-18T01:06:01.090Z,99.90
2018-04-18T01:07:03.563Z,99.90
2018-04-18T01:08:06.023Z,99.90
2018-04-18T01:09:09.310Z,99.90
2018-04-18T01:10:11.813Z,99.90
2018-04-18T01:11:14.317Z,99.90
2018-04-18T01:12:16.781Z,99.90
2018-04-18T01:13:19.266Z,99.90
2018-04-18T01:14:22.547Z,99.90
2018-04-18T01:15:25.479Z,99.90
2018-04-18T01:16:27.990Z,99.90
2018-04-18T01:17:30.465Z,99.90
2018-04-18T01:18:32.940Z,99.90
2018-04-18T01:19:35.411Z,99.90
2018-04-18T01:20:37.906Z,99.90
2018-04-18T01:21:40.463Z,99.90
2018-04-18T01:22:42.974Z,99.90
2018-04-18T01:23:45.544Z,99.90
2018-04-18T01:24:48.246Z,99.90
2018-04-18T01:25:50.726Z,99.90
2018-04-18T01:26:53.245Z,99.90
2018-04-18T01:27:55.704Z,99.90
2018-04-18T01:28:58.177Z,99.90
2018-04-18T01:30:00.711Z,99.90
2018-04-18T01:31:03.975Z,99.90
2018-04-18T01:32:06.481Z,99.90
2018-04-18T01:33:09.763Z,99.90
2018-04-18T01:34:12.268Z,99.90
2018-04-18T01:35:14.755Z,99.90
2018-04-18T01:36:17.240Z,99.90
2018-04-18T01:37:19.761Z,99.90
2018-04-18T01:38:22.261Z,99.90
2018-04-18T01:39:24.796Z,99.90
2018-04-18T01:40:27.386Z,99.90
2018-04-18T01:41:29.874Z,99.90
2018-04-18T01:42:32.345Z,99.90
2018-04-18T01:43:35.723Z,99.90
2018-04-18T01:44:38.229Z,99.90
2018-04-18T01:45:41.450Z,99.90
2018-04-18T01:46:43.931Z,99.90
2018-04-18T01:47:46.407Z,99.90
2018-04-18T01:48:49.704Z,99.90
2018-04-18T01:49:52.187Z,99.90
2018-04-18T01:50:55.432Z,99.90
2018-04-18T01:51:58.712Z,99.90
2018-04-18T01:53:01.184Z,99.90
2018-04-18T01:54:04.484Z,99.90
2018-04-18T01:55:06.978Z,99.90
2018-04-18T01:56:09.533Z,99.90
2018-04-18T01:57:12.355Z,99.90
2018-04-18T01:58:14.830Z,99.90
2018-04-18T01:59:17.402Z,99.90
2018-04-18T02:00:19.861Z,99.90
2018-04-18T02:01:22.329Z,99.90
2018-04-18T02:02:25.589Z,99.90
2018-04-18T02:03:28.082Z,99.90
2018-04-18T02:04:30.637Z,99.90
2018-04-18T02:05:33.153Z,99.90
2018-04-18T02:06:36.395Z,99.90
2018-04-18T02:07:39.746Z,99.90
2018-04-18T02:08:42.283Z,99.90
2018-04-18T02:09:44.863Z,99.90
2018-04-18T02:10:47.434Z,99.90
2018-04-18T02:11:49.949Z,99.90
2018-04-18T02:12:52.471Z,99.90
2018-04-18T02:13:55.716Z,99.90
2018-04-18T02:14:58.473Z,99.90
2018-04-18T02:16:00.953Z,99.90
2018-04-18T02:17:04.233Z,99.90
2018-04-18T02:18:06.697Z,99.90
2018-04-18T02:19:09.165Z,99.90
2018-04-18T02:20:11.635Z,99.90
2018-04-18T02:21:14.117Z,99.90
2018-04-18T02:22:16.858Z,99.90
2018-04-18T02:23:19.385Z,99.90
2018-04-18T02:24:21.854Z,99.90
2018-04-18T02:25:24.445Z,99.90
2018-04-18T02:26:26.928Z,99.90
2018-04-18T02:27:30.293Z,99.90
2018-04-18T02:28:32.758Z,99.90
2018-04-18T02:29:35.216Z,99.90
2018-04-18T02:30:38.461Z,99.90
2018-04-18T02:31:41.696Z,99.90
2018-04-18T02:32:44.263Z,99.90
2018-04-18T02:33:46.720Z,99.90
2018-04-18T02:34:49.237Z,99.90
2018-04-18T02:35:51.721Z,99.90
2018-04-18T02:36:54.968Z,99.90
2018-04-18T02:37:58.312Z,99.90
2018-04-18T02:39:01.590Z,99.90
2018-04-18T02:40:04.068Z,99.90
2018-04-18T02:41:07.399Z,99.90
2018-04-18T02:42:10.680Z,99.90
2018-04-18T02:43:13.223Z,99.90
2018-04-18T02:44:15.723Z,99.90
2018-04-18T02:45:18.274Z,99.90
2018-04-18T02:46:20.884Z,99.90
2018-04-18T02:47:23.421Z,99.90
2018-04-18T02:48:25.916Z,99.90
2018-04-18T02:49:29.184Z,99.90
2018-04-18T02:50:31.644Z,99.90
2018-04-18T02:51:34.214Z,99.90
2018-04-18T02:52:36.677Z,99.90
2018-04-18T02:53:39.151Z,99.90
2018-04-18T02:54:42.405Z,99.90
2018-04-18T02:55:45.647Z,99.90
2018-04-18T02:56:48.195Z,99.90
2018-04-18T02:57:50.718Z,99.90
2018-04-18T02:58:53.194Z,99.90
2018-04-18T02:59:55.680Z,99.90
2018-04-18T03:00:58.159Z,99.90
2018-04-18T03:02:00.726Z,99.90
2018-04-18T03:03:03.204Z,99.90
2018-04-18T03:04:06.448Z,99.90
2018-04-18T03:05:09.746Z,99.90
2018-04-18T03:06:12.266Z,99.90
2018-04-18T03:07:14.793Z,99.90
2018-04-18T03:08:17.259Z,99.90
2018-04-18T03:09:19.832Z,99.90
2018-04-18T03:10:22.313Z,99.90
2018-04-18T03:11:24.781Z,99.90
2018-04-18T03:12:27.256Z,99.90
2018-04-18T03:13:29.748Z,99.90
2018-04-18T03:14:32.267Z,99.90
2018-04-18T03:15:34.733Z,99.90
2018-04-18T03:16:37.210Z,99.90
2018-04-18T03:17:39.712Z,99.90
2018-04-18T03:18:42.946Z,99.90
2018-04-18T03:19:46.223Z,99.90
2018-04-18T03:20:48.712Z,99.90
2018-04-18T03:21:51.957Z,99.90
2018-04-18T03:22:55.193Z,99.90
2018-04-18T03:23:58.477Z,99.90
2018-04-18T03:25:00.953Z,99.90
2018-04-18T03:26:03.451Z,99.90
2018-04-18T03:27:05.982Z,99.90
2018-04-18T03:28:08.483Z,99.90
2018-04-18T03:29:10.985Z,99.90
2018-04-18T03:30:13.473Z,99.90
2018-04-18T03:31:15.977Z,99.90
2018-04-18T03:32:18.468Z,99.90
2018-04-18T03:33:20.955Z,99.90
2018-04-18T03:34:24.220Z,99.90
2018-04-18T03:35:26.713Z,99.90
2018-04-18T03:36:29.259Z,99.90
2018-04-18T03:37:32.507Z,99.90
2018-04-18T03:38:35.739Z,99.90
2018-04-18T03:39:38.990Z,99.90
2018-04-18T03:40:42.251Z,99.90
2018-04-18T03:41:44.767Z,99.90
2018-04-18T03:42:48.001Z,99.90
2018-04-18T03:43:51.237Z,99.90
2018-04-18T03:44:54.484Z,99.90
2018-04-18T03:45:57.747Z,99.90
2018-04-18T03:47:00.246Z,99.90
2018-04-18T03:48:03.005Z,99.90
2018-04-18T03:49:06.681Z,99.90
2018-04-18T03:50:09.380Z,99.90
2018-04-18T03:51:12.654Z,99.90
2018-04-18T03:52:15.200Z,99.90
2018-04-18T03:53:17.744Z,99.90
2018-04-18T03:54:20.239Z,99.90
2018-04-18T03:55:22.714Z,99.90
2018-04-18T03:56:25.986Z,99.90
2018-04-18T03:57:28.497Z,99.90
2018-04-18T03:58:32.643Z,99.90
2018-04-18T03:59:36.519Z,99.90
2018-04-18T04:00:39.009Z,99.90
2018-04-18T04:01:41.488Z,99.90
2018-04-18T04:02:43.972Z,99.90
2018-04-18T04:03:47.210Z,99.90
2018-04-18T04:04:50.462Z,99.90
2018-04-18T04:05:53.701Z,99.90
2018-04-18T04:06:56.943Z,99.90
2018-04-18T04:08:00.210Z,99.90
2018-04-18T04:09:02.664Z,99.90
2018-04-18T04:10:05.179Z,99.90
2018-04-18T04:11:07.651Z,99.90
2018-04-18T04:12:10.926Z,99.90
2018-04-18T04:13:14.197Z,99.90
2018-04-18T04:14:17.027Z,99.90
2018-04-18T04:15:19.518Z,99.90
2018-04-18T04:16:34.664Z,99.90
2018-04-18T04:17:58.072Z,99.90
2018-04-18T04:19:12.355Z,99.90
2018-04-18T04:20:26.839Z,99.90
2018-04-18T04:21:42.078Z,99.90
2018-04-18T04:22:56.544Z,99.90
2018-04-18T04:24:10.898Z,99.90
2018-04-18T04:25:14.882Z,99.90
2018-04-18T04:26:18.217Z,99.90
2018-04-18T04:27:20.700Z,99.90
2018-04-18T04:28:24.006Z,99.90
2018-04-18T04:29:27.267Z,99.90
2018-04-18T04:30:29.780Z,99.90
2018-04-18T04:31:32.363Z,99.90
2018-04-18T04:32:34.792Z,99.90
2018-04-18T04:33:37.256Z,99.90
2018-04-18T04:34:39.750Z,99.90
2018-04-18T04:35:42.309Z,99.90
2018-04-18T04:36:44.797Z,99.90
2018-04-18T04:37:47.302Z,99.90
2018-04-18T04:38:50.610Z,99.90
2018-04-18T04:39:53.334Z,99.90
2018-04-18T04:40:56.703Z,99.90
2018-04-18T04:41:59.394Z,99.90
2018-04-18T04:43:02.632Z,99.90
2018-04-18T04:44:05.085Z,99.90
2018-04-18T04:45:07.580Z,99.90
2018-04-18T04:46:10.093Z,99.90
2018-04-18T04:47:12.624Z,99.90
2018-04-18T04:48:15.280Z,99.90
2018-04-18T04:49:17.976Z,99.90
2018-04-18T04:50:21.258Z,99.90
2018-04-18T04:51:23.774Z,99.90
2018-04-18T04:52:27.000Z,99.90
2018-04-18T04:53:30.231Z,99.90
2018-04-18T04:54:32.694Z,99.90
2018-04-18T04:55:35.217Z,99.90
2018-04-18T04:56:37.767Z,99.90
2018-04-18T04:57:40.313Z,99.90
2018-04-18T04:58:42.813Z,99.90
2018-04-18T04:59:45.385Z,99.90
2018-04-18T05:00:47.929Z,99.90
2018-04-18T05:01:51.627Z,99.90
2018-04-18T05:02:54.130Z,99.90
2018-04-18T05:03:56.659Z,99.90
2018-04-18T05:04:59.133Z,99.90
2018-04-18T05:06:01.630Z,99.90
2018-04-18T05:07:04.152Z,99.90
2018-04-18T05:08:06.716Z,99.90
2018-04-18T05:09:10.045Z,99.90
2018-04-18T05:10:12.528Z,99.90
2018-04-18T05:11:15.090Z,99.90
2018-04-18T05:12:17.673Z,99.90
2018-04-18T05:13:20.934Z,99.90
2018-04-18T05:14:23.445Z,99.90
2018-04-18T05:15:25.964Z,99.90
2018-04-18T05:16:29.192Z,99.90
2018-04-18T05:17:32.501Z,99.90
2018-04-18T05:18:34.982Z,99.90
2018-04-18T05:19:37.468Z,99.90
2018-04-18T05:20:39.966Z,99.90
2018-04-18T05:21:42.506Z,99.90
2018-04-18T05:22:45.079Z,99.90
2018-04-18T05:23:48.312Z,99.90
2018-04-18T05:24:51.577Z,99.90
2018-04-18T05:25:54.077Z,99.90
2018-04-18T05:26:57.340Z,99.90
2018-04-18T05:27:59.871Z,99.90
2018-04-18T05:29:02.410Z,99.90
2018-04-18T05:30:04.942Z,99.90
2018-04-18T05:31:07.427Z,99.90
2018-04-18T05:32:10.666Z,99.90
2018-04-18T05:33:14.029Z,99.90
2018-04-18T05:34:16.882Z,99.90
2018-04-18T05:35:19.351Z,99.90
2018-04-18T05:36:21.809Z,99.90
2018-04-18T05:37:24.346Z,99.90
2018-04-18T05:38:27.549Z,99.90
2018-04-18T05:39:30.030Z,99.90
2018-04-18T05:40:32.518Z,99.90
2018-04-18T05:41:35.881Z,99.90
2018-04-18T05:42:38.343Z,99.90
2018-04-18T05:43:40.938Z,99.90
2018-04-18T05:44:43.468Z,99.90
2018-04-18T05:45:45.968Z,99.90
2018-04-18T05:46:49.236Z,99.90
2018-04-18T05:47:51.710Z,99.90
2018-04-18T05:48:54.262Z,99.90
2018-04-18T05:49:57.533Z,99.90
2018-04-18T05:51:00.069Z,99.90
2018-04-18T05:52:02.576Z,99.90
2018-04-18T05:53:05.866Z,99.90
2018-04-18T05:54:08.357Z,99.90
2018-04-18T05:55:10.883Z,99.90
2018-04-18T05:56:13.362Z,99.90
2018-04-18T05:57:16.658Z,99.90
2018-04-18T05:58:19.108Z,99.90
2018-04-18T05:59:21.592Z,99.90
2018-04-18T06:00:24.071Z,99.90
2018-04-18T06:01:26.546Z,99.90
2018-04-18T06:02:29.170Z,99.90
2018-04-18T06:03:31.670Z,99.90
2018-04-18T06:04:34.903Z,99.90
2018-04-18T06:05:38.137Z,99.90
2018-04-18T06:06:41.378Z,99.90
2018-04-18T06:07:44.801Z,99.90
2018-04-18T06:08:47.289Z,99.90
2018-04-18T06:09:49.776Z,99.90
2018-04-18T06:10:52.350Z,99.90
2018-04-18T06:11:54.832Z,99.90
2018-04-18T06:12:58.242Z,99.90
2018-04-18T06:14:00.732Z,99.90
2018-04-18T06:15:03.226Z,99.90
2018-04-18T06:16:06.470Z,99.90
2018-04-18T06:17:09.708Z,99.90
2018-04-18T06:18:12.215Z,99.90
2018-04-18T06:19:15.597Z,99.90
2018-04-18T06:20:18.012Z,99.90
2018-04-18T06:21:21.307Z,99.90
2018-04-18T06:22:23.821Z,99.90
2018-04-18T06:23:26.313Z,99.90
2018-04-18T06:24:28.909Z,99.90
2018-04-18T06:25:31.386Z,99.90
2018-04-18T06:26:33.881Z,99.90
2018-04-18T06:27:37.125Z,99.90
2018-04-18T06:28:40.393Z,99.90
2018-04-18T06:29:42.932Z,99.90
2018-04-18T06:30:45.402Z,99.90
2018-04-18T06:31:47.864Z,99.90
2018-04-18T06:32:50.334Z,99.90
2018-04-18T06:33:52.851Z,99.90
2018-04-18T06:34:55.317Z,99.90
2018-04-18T06:35:58.562Z,99.90
2018-04-18T06:37:01.841Z,99.90
2018-04-18T06:38:04.327Z,99.90
2018-04-18T06:39:07.611Z,99.90
2018-04-18T06:40:10.085Z,99.90
2018-04-18T06:41:13.328Z,99.90
2018-04-18T06:42:15.876Z,99.90
2018-04-18T06:43:19.133Z,99.90
2018-04-18T06:44:21.637Z,99.90
2018-04-18T06:45:24.910Z,99.90
2018-04-18T06:46:27.381Z,99.90
2018-04-18T06:47:30.674Z,99.90
2018-04-18T06:48:33.195Z,99.90
2018-04-18T06:49:35.704Z,99.90
2018-04-18T06:50:38.981Z,99.90
2018-04-18T06:51:41.449Z,99.90
2018-04-18T06:52:44.685Z,99.90
2018-04-18T06:53:47.154Z,99.90
2018-04-18T06:54:49.671Z,99.90
2018-04-18T06:55:52.912Z,98.00
2018-04-18T06:56:56.167Z,97.40
2018-04-18T06:57:58.672Z,97.40
2018-04-18T06:59:01.912Z,98.00
2018-04-18T07:00:05.280Z,97.50
2018-04-18T07:01:07.745Z,97.50
2018-04-18T07:02:10.246Z,97.40
2018-04-18T07:03:12.800Z,97.80
2018-04-18T07:04:15.301Z,97.60
2018-04-18T07:05:17.778Z,97.90
2018-04-18T07:06:21.023Z,96.80
2018-04-18T07:07:24.269Z,96.50
2018-04-18T07:08:27.647Z,96.30
2018-04-18T07:09:30.114Z,96.30
2018-04-18T07:10:33.379Z,95.10
2018-04-18T07:11:36.649Z,95.80
2018-04-18T07:12:39.942Z,95.70
2018-04-18T07:13:42.457Z,95.50
2018-04-18T07:14:45.057Z,94.80
2018-04-18T07:15:47.544Z,94.30
2018-04-18T07:16:50.784Z,93.50
2018-04-18T07:17:53.332Z,93.50
2018-04-18T07:18:55.861Z,93.10
2018-04-18T07:19:58.375Z,93.20
2018-04-18T07:21:01.629Z,93.30
2018-04-18T07:22:05.017Z,93.30
2018-04-18T07:23:08.006Z,93.30
2018-04-18T07:24:10.516Z,93.20
2018-04-18T07:25:13.798Z,93.40
2018-04-18T07:26:16.272Z,93.50
2018-04-18T07:27:18.755Z,92.70
2018-04-18T07:28:21.256Z,92.20
2018-04-18T07:29:23.779Z,92.50
2018-04-18T07:30:26.255Z,92.10
2018-04-18T07:31:28.736Z,91.70
2018-04-18T07:32:31.329Z,91.20
2018-04-18T07:33:33.952Z,91.30
2018-04-18T07:34:36.482Z,90.90
2018-04-18T07:35:39.051Z,90.50
2018-04-18T07:36:41.540Z,90.10
2018-04-18T07:37:44.785Z,89.30
2018-04-18T07:38:48.079Z,90.60
2018-04-18T07:39:50.688Z,90.60
2018-04-18T07:40:53.179Z,90.40
2018-04-18T07:41:56.565Z,89.00
2018-04-18T07:42:59.045Z,88.90
2018-04-18T07:44:02.307Z,87.10
2018-04-18T07:45:04.777Z,86.40
2018-04-18T07:46:07.260Z,88.60
2018-04-18T07:47:10.543Z,87.40
2018-04-18T07:48:13.041Z,87.30
2018-04-18T07:49:15.586Z,87.10
2018-04-18T07:50:18.073Z,86.50
2018-04-18T07:51:21.306Z,86.10
2018-04-18T07:52:24.597Z,86.70
2018-04-18T07:53:27.075Z,86.60
2018-04-18T07:54:30.334Z,86.50
2018-04-18T07:55:32.812Z,86.50
2018-04-18T07:56:35.287Z,85.40
2018-04-18T07:57:37.814Z,85.80
2018-04-18T07:58:40.296Z,85.40
2018-04-18T07:59:42.792Z,84.50
2018-04-18T08:00:45.288Z,85.20
2018-04-18T08:01:47.920Z,83.40
2018-04-18T08:02:50.437Z,84.20
2018-04-18T08:03:53.674Z,82.50
2018-04-18T08:04:56.948Z,80.20
2018-04-18T08:05:59.499Z,80.40
2018-04-18T08:07:01.962Z,77.20
2018-04-18T08:08:05.311Z,79.20
2018-04-18T08:09:08.416Z,78.20
2018-04-18T08:10:10.892Z,76.80
2018-04-18T08:11:13.366Z,79.10
2018-04-18T08:12:15.877Z,78.10
2018-04-18T08:13:18.355Z,77.20
2018-04-18T08:14:23.056Z,76.10
2018-04-18T08:15:25.577Z,76.40
2018-04-18T08:16:28.776Z,78.00
2018-04-18T08:17:32.070Z,76.60
2018-04-18T08:18:34.548Z,76.60
2018-04-18T08:19:37.041Z,77.30
2018-04-18T08:20:39.510Z,76.00
2018-04-18T08:21:42.819Z,74.10
2018-04-18T08:22:45.905Z,74.10
2018-04-18T08:23:48.379Z,71.40
2018-04-18T08:24:50.869Z,70.10
2018-04-18T08:25:53.433Z,68.50
2018-04-18T08:26:56.032Z,68.30
2018-04-18T08:27:58.643Z,68.40
2018-04-18T08:29:01.132Z,69.00
2018-04-18T08:30:04.397Z,69.90
2018-04-18T08:31:06.977Z,69.90
2018-04-18T08:32:09.461Z,70.70
2018-04-18T08:33:11.975Z,69.00
2018-04-18T08:34:14.640Z,70.50
2018-04-18T08:35:17.129Z,69.80
2018-04-18T08:36:20.356Z,70.00
2018-04-18T08:37:23.600Z,69.50
2018-04-18T08:38:26.884Z,69.30
2018-04-18T08:39:29.374Z,69.30
2018-04-18T08:40:32.640Z,70.50
2018-04-18T08:41:35.162Z,70.40
2018-04-18T08:42:37.647Z,70.70
2018-04-18T08:43:40.169Z,72.50
2018-04-18T08:44:44.147Z,71.90
2018-04-18T08:45:47.393Z,72.10
2018-04-18T08:46:50.656Z,73.60
2018-04-18T08:47:53.141Z,73.50
2018-04-18T08:48:55.695Z,74.10
2018-04-18T08:49:58.142Z,75.90
2018-04-18T08:51:00.715Z,76.10
2018-04-18T08:52:03.197Z,77.60
2018-04-18T08:53:05.667Z,77.40
2018-04-18T08:54:09.053Z,78.20
2018-04-18T08:55:11.537Z,78.20
2018-04-18T08:56:14.024Z,80.00
2018-04-18T08:57:16.498Z,81.90
2018-04-18T08:58:19.750Z,83.30
2018-04-18T08:59:22.274Z,83.30
2018-04-18T09:00:25.523Z,86.20
2018-04-18T09:01:28.759Z,84.00
2018-04-18T09:02:31.991Z,83.10
2018-04-18T09:03:35.309Z,83.80
2018-04-18T09:04:37.799Z,83.80
2018-04-18T09:05:40.284Z,83.80
2018-04-18T09:06:42.745Z,85.00
2018-04-18T09:07:45.243Z,86.40
2018-04-18T09:08:47.730Z,85.40
2018-04-18T09:09:50.290Z,85.10
2018-04-18T09:10:52.778Z,84.40
2018-04-18T09:11:55.400Z,86.30
2018-04-18T09:12:57.751Z,86.20
2018-04-18T09:14:01.783Z,88.00
2018-04-18T09:15:04.278Z,88.00
2018-04-18T09:16:06.779Z,88.60
2018-04-18T09:17:10.021Z,90.60
2018-04-18T09:18:13.276Z,90.30
2018-04-18T09:19:16.524Z,90.80
2018-04-18T09:20:19.009Z,90.80
2018-04-18T09:21:21.587Z,90.70
2018-04-18T09:22:24.090Z,90.00
2018-04-18T09:23:27.350Z,90.00
2018-04-18T09:24:29.804Z,90.10
2018-04-18T09:25:32.294Z,90.10
2018-04-18T09:26:35.578Z,90.70
2018-04-18T09:27:38.047Z,90.70
2018-04-18T09:28:41.267Z,89.90
2018-04-18T09:29:43.783Z,89.90
2018-04-18T09:30:46.266Z,90.40
2018-04-18T09:31:48.788Z,90.40
2018-04-18T09:32:51.286Z,89.00
2018-04-18T09:33:54.512Z,89.00
2018-04-18T09:34:56.962Z,88.90
2018-04-18T09:35:59.676Z,89.10
2018-04-18T09:37:02.177Z,88.30
2018-04-18T09:38:04.766Z,90.20
2018-04-18T09:39:07.249Z,90.20
2018-04-18T09:40:09.708Z,90.20
2018-04-18T09:41:12.168Z,90.40
2018-04-18T09:42:14.691Z,89.30
2018-04-18T09:43:17.177Z,90.60
2018-04-18T09:44:20.444Z,90.30
2018-04-18T09:45:23.048Z,90.30
2018-04-18T09:46:25.537Z,90.00
2018-04-18T09:47:28.107Z,90.20
2018-04-18T09:48:30.679Z,90.70
2018-04-18T09:49:33.165Z,91.20
2018-04-18T09:50:35.648Z,90.90
2018-04-18T09:51:38.134Z,91.10
2018-04-18T09:52:40.691Z,90.60
2018-04-18T09:53:44.084Z,91.40
2018-04-18T09:54:46.661Z,91.50
2018-04-18T09:55:49.146Z,91.40
2018-04-18T09:56:51.704Z,90.90
2018-04-18T09:57:54.664Z,91.40
2018-04-18T09:58:57.139Z,90.90
2018-04-18T09:59:59.665Z,90.90
2018-04-18T10:01:02.318Z,90.50
2018-04-18T10:02:10.422Z,90.90
2018-04-18T10:03:14.822Z,90.80
2018-04-18T10:04:23.011Z,90.40
2018-04-18T10:05:25.485Z,90.30
2018-04-18T10:06:27.981Z,91.10
2018-04-18T10:07:31.251Z,91.40
2018-04-18T10:08:33.732Z,91.40
2018-04-18T10:09:37.754Z,90.90
2018-04-18T10:10:40.225Z,90.90
2018-04-18T10:11:43.488Z,88.40
2018-04-18T10:12:46.765Z,88.70
2018-04-18T10:13:49.238Z,88.80
2018-04-18T10:14:52.661Z,91.10
2018-04-18T10:15:55.194Z,91.00
2018-04-18T10:16:57.673Z,90.20
2018-04-18T10:18:00.185Z,89.70
2018-04-18T10:19:02.860Z,90.90
2018-04-18T10:20:05.570Z,90.60
2018-04-18T10:21:08.094Z,89.40
2018-04-18T10:22:10.567Z,89.90
2018-04-18T10:23:13.130Z,89.00
2018-04-18T10:24:15.650Z,88.90
2018-04-18T10:25:18.181Z,90.60
2018-04-18T10:26:20.716Z,87.00
2018-04-18T10:27:23.204Z,87.10
2018-04-18T10:28:26.478Z,89.10
2018-04-18T10:29:28.980Z,89.00
2018-04-18T10:30:32.365Z,87.80
2018-04-18T10:31:35.037Z,87.80
2018-04-18T10:32:38.133Z,88.80
2018-04-18T10:33:40.626Z,88.20
2018-04-18T10:34:43.857Z,90.20
2018-04-18T10:35:47.121Z,88.20
2018-04-18T10:36:49.977Z,88.00
2018-04-18T10:37:52.626Z,85.70
2018-04-18T10:38:55.102Z,85.40
2018-04-18T10:39:57.574Z,85.70
2018-04-18T10:41:00.109Z,84.50
2018-04-18T10:42:02.695Z,85.40
2018-04-18T10:43:05.177Z,86.80
2018-04-18T10:44:08.573Z,83.60
2018-04-18T10:45:11.031Z,83.40
2018-04-18T10:46:15.021Z,85.00
2018-04-18T10:47:18.297Z,85.50
2018-04-18T10:48:20.779Z,85.50
2018-04-18T10:49:24.063Z,87.50
2018-04-18T10:50:26.591Z,87.50
2018-04-18T10:51:29.086Z,86.90
2018-04-18T10:52:32.452Z,85.70
2018-04-18T10:53:34.934Z,85.70
2018-04-18T10:54:38.436Z,86.00
2018-04-18T10:55:41.053Z,85.90
2018-04-18T10:56:43.559Z,85.30
2018-04-18T10:57:46.809Z,84.70
2018-04-18T10:58:49.341Z,84.80
2018-04-18T10:59:51.919Z,85.80
2018-04-18T11:00:54.502Z,86.40
2018-04-18T11:01:56.998Z,85.30
2018-04-18T11:03:00.264Z,85.40
2018-04-18T11:04:02.815Z,85.40
2018-04-18T11:05:05.304Z,86.00
2018-04-18T11:06:08.579Z,86.10
2018-04-18T11:07:11.057Z,85.90
2018-04-18T11:08:14.296Z,85.20
2018-04-18T11:09:16.856Z,85.10
2018-04-18T11:10:19.336Z,83.50
2018-04-18T11:11:23.348Z,79.20
2018-04-18T11:12:25.833Z,79.20
2018-04-18T11:13:29.117Z,78.40
2018-04-18T11:14:31.619Z,78.50
2018-04-18T11:15:34.136Z,78.60
2018-04-18T11:16:37.411Z,77.60
2018-04-18T11:17:39.942Z,77.10
2018-04-18T11:18:42.607Z,78.70
2018-04-18T11:19:45.096Z,78.10
2018-04-18T11:20:47.606Z,76.70
2018-04-18T11:21:50.109Z,77.50
2018-04-18T11:22:53.439Z,77.90
2018-04-18T11:23:55.914Z,77.90
2018-04-18T11:24:58.410Z,78.30
2018-04-18T11:26:01.660Z,79.10
2018-04-18T11:27:04.484Z,79.10
2018-04-18T11:28:07.773Z,78.90
2018-04-18T11:29:10.309Z,78.90
2018-04-18T11:30:12.833Z,79.50
2018-04-18T11:31:15.307Z,80.90
2018-04-18T11:32:18.683Z,79.60
2018-04-18T11:33:21.206Z,79.50
2018-04-18T11:34:23.751Z,78.00
2018-04-18T11:35:26.423Z,77.90
2018-04-18T11:36:29.793Z,79.60
2018-04-18T11:37:32.404Z,79.60
2018-04-18T11:38:34.911Z,80.80
2018-04-18T11:39:38.973Z,78.40
2018-04-18T11:40:41.578Z,78.40
2018-04-18T11:41:44.053Z,78.50
2018-04-18T11:42:46.615Z,78.60
2018-04-18T11:43:49.277Z,79.00
2018-04-18T11:44:51.817Z,78.60
2018-04-18T11:45:55.074Z,78.20
2018-04-18T11:46:57.609Z,78.00
2018-04-18T11:48:00.234Z,80.60
2018-04-18T11:49:02.734Z,79.40
2018-04-18T11:50:06.004Z,76.90
2018-04-18T11:51:08.568Z,76.80
2018-04-18T11:52:11.049Z,78.20
2018-04-18T11:53:13.541Z,78.80
2018-04-18T11:54:16.084Z,78.00
2018-04-18T11:55:18.677Z,78.20
2018-04-18T11:56:22.753Z,76.00
2018-04-18T11:57:25.256Z,75.90
2018-04-18T11:58:27.757Z,75.80
2018-04-18T11:59:30.264Z,75.80
2018-04-18T12:00:32.777Z,75.70
2018-04-18T12:01:36.065Z,76.20
2018-04-18T12:02:38.585Z,76.00
2018-04-18T12:03:41.096Z,76.80
2018-04-18T12:04:43.673Z,77.00
2018-04-18T12:05:46.248Z,78.10
2018-04-18T12:06:48.792Z,76.60
2018-04-18T12:07:51.304Z,76.30
2018-04-18T12:08:53.835Z,76.90
2018-04-18T12:09:56.322Z,77.50
2018-04-18T12:10:59.607Z,74.80
2018-04-18T12:12:02.119Z,74.70
2018-04-18T12:13:04.583Z,74.30
2018-04-18T12:14:07.096Z,74.10
2018-04-18T12:15:09.854Z,71.50
2018-04-18T12:16:12.450Z,71.60
2018-04-18T12:17:15.059Z,71.70
2018-04-18T12:18:17.522Z,71.30
2018-04-18T12:19:20.117Z,71.90
2018-04-18T12:20:22.597Z,74.10
2018-04-18T12:21:25.883Z,74.70
2018-04-18T12:22:28.462Z,74.60
2018-04-18T12:23:31.061Z,75.20
2018-04-18T12:24:33.576Z,75.70
2018-04-18T12:25:36.102Z,74.50
2018-04-18T12:26:38.734Z,74.50
2018-04-18T12:27:41.258Z,74.50
2018-04-18T12:28:43.751Z,73.10
2018-04-18T12:29:47.050Z,74.30
2018-04-18T12:30:49.547Z,74.20
2018-04-18T12:31:52.032Z,71.90
2018-04-18T12:32:55.330Z,72.40
2018-04-18T12:33:57.840Z,72.30
2018-04-18T12:35:00.369Z,73.50
2018-04-18T12:36:02.866Z,73.00
2018-04-18T12:37:06.147Z,72.50
2018-04-18T12:38:08.640Z,72.50
2018-04-18T12:39:11.280Z,73.60
2018-04-18T12:40:13.787Z,73.70
2018-04-18T12:41:16.292Z,73.00
2018-04-18T12:42:18.900Z,73.60
2018-04-18T12:43:21.422Z,73.60
2018-04-18T12:44:24.026Z,74.10
2018-04-18T12:45:26.514Z,74.00
2018-04-18T12:46:29.791Z,73.40
2018-04-18T12:47:32.277Z,73.20
2018-04-18T12:48:35.547Z,73.30
2018-04-18T12:49:38.105Z,73.30
2018-04-18T12:50:40.605Z,72.90
2018-04-18T12:51:43.555Z,73.20
2018-04-18T12:52:46.080Z,72.80
2018-04-18T12:53:48.554Z,72.30
2018-04-18T12:54:51.830Z,72.80
2018-04-18T12:55:54.569Z,72.80
2018-04-18T12:56:57.087Z,72.90
2018-04-18T12:57:59.590Z,73.20
2018-04-18T12:59:02.075Z,73.00
2018-04-18T13:00:04.620Z,72.40
2018-04-18T13:01:07.902Z,71.90
2018-04-18T13:02:10.416Z,71.80
2018-04-18T13:03:12.876Z,72.80
2018-04-18T13:04:15.382Z,72.20
2018-04-18T13:05:17.883Z,72.00
2018-04-18T13:06:21.146Z,71.70
2018-04-18T13:07:23.687Z,71.60
2018-04-18T13:08:26.172Z,71.90
2018-04-18T13:09:29.560Z,71.40
2018-04-18T13:10:32.044Z,71.40
2018-04-18T13:11:35.304Z,71.20
2018-04-18T13:12:37.825Z,71.20
2018-04-18T13:13:40.327Z,71.60
2018-04-18T13:14:43.568Z,73.00
2018-04-18T13:15:46.832Z,72.10
2018-04-18T13:16:50.104Z,71.90
2018-04-18T13:17:52.628Z,71.90
2018-04-18T13:18:55.092Z,71.50
2018-04-18T13:19:57.584Z,71.40
2018-04-18T13:21:00.056Z,72.00
2018-04-18T13:22:02.625Z,70.20
2018-04-18T13:23:05.150Z,71.10
2018-04-18T13:24:07.628Z,72.00
2018-04-18T13:25:10.122Z,71.90
2018-04-18T13:26:12.656Z,71.90
2018-04-18T13:27:15.157Z,70.80
2018-04-18T13:28:17.837Z,71.80
2018-04-18T13:29:20.582Z,71.80